Time;durP1;ratioP1;P1;durP2;ratioP2;P2;SDS_P1;SDS_P2;PMS_P1;PMS_P2;Temp;Humidity;BMP_temperature;BMP_pressure;BME280_temperature;BME280_humidity;BME280_pressure;Samples;Min_cycle;Max_cycle;Signal;HPM_P1;HPM_P2
2023/01/07 00:01:13;;;;;;;0.30;0.30;;;5.10;99.90;;;;;;5050146;28;20453;-91
2023/01/07 00:03:39;;;;;;;0.30;0.30;;;5.00;99.90;;;;;;5046281;28;20475;-91
2023/01/07 00:06:14;;;;;;;0.27;0.27;;;5.10;99.90;;;;;;5031837;28;20988;-91
2023/01/07 00:08:42;;;;;;;0.30;0.30;;;5.00;99.90;;;;;;5050596;28;20563;-91
2023/01/07 00:11:10;;;;;;;0.30;0.30;;;5.10;99.90;;;;;;5048266;28;20445;-89
2023/01/07 00:13:36;;;;;;;0.30;0.30;;;5.10;99.90;;;;;;5032434;28;20488;-90
2023/01/07 00:16:07;;;;;;;0.30;0.30;;;5.20;99.90;;;;;;5045076;28;20441;-90
2023/01/07 00:18:34;;;;;;;0.30;0.30;;;5.20;99.90;;;;;;5047798;28;20421;-90
2023/01/07 00:21:01;;;;;;;0.30;0.30;;;5.20;99.90;;;;;;5045889;28;20518;-90
2023/01/07 00:23:28;;;;;;;0.30;0.30;;;5.30;99.90;;;;;;5049270;28;20506;-90
2023/01/07 00:26:03;;;;;;;0.30;0.30;;;5.20;99.90;;;;;;5050819;28;20413;-90
2023/01/07 00:28:29;;;;;;;0.30;0.30;;;5.20;99.90;;;;;;5032340;28;20478;-91
2023/01/07 00:31:02;;;;;;;0.30;0.30;;;5.20;99.90;;;;;;5032839;28;20884;-90
2023/01/07 00:33:28;;;;;;;0.30;0.30;;;5.20;99.90;;;;;;5049341;28;20810;-90
2023/01/07 00:36:01;;;;;;;0.30;0.30;;;5.20;99.90;;;;;;5033490;28;20974;-90
2023/01/07 00:38:27;;;;;;;0.30;0.30;;;5.20;99.90;;;;;;5052469;28;20468;-91
2023/01/07 00:40:52;;;;;;;0.30;0.30;;;5.20;99.90;;;;;;5034982;28;20888;-90
2023/01/07 00:43:18;;;;;;;0.30;0.30;;;5.10;99.90;;;;;;5034808;28;20193;-91
2023/01/07 00:45:44;;;;;;;0.30;0.30;;;5.10;99.90;;;;;;5052768;28;20233;-91
2023/01/07 00:48:09;;;;;;;0.30;0.30;;;5.10;99.90;;;;;;5049441;28;20219;-90
2023/01/07 00:50:36;;;;;;;0.30;0.30;;;5.20;99.90;;;;;;5048792;28;20926;-91
2023/01/07 00:53:02;;;;;;;0.30;0.30;;;5.10;99.90;;;;;;5048970;28;20289;-89
2023/01/07 00:55:30;;;;;;;0.20;0.20;;;5.20;99.90;;;;;;5035835;28;20445;-90
2023/01/07 00:57:56;;;;;;;0.30;0.30;;;5.20;99.90;;;;;;5053723;28;20441;-91
2023/01/07 01:00:23;;;;;;;0.30;0.30;;;5.20;99.90;;;;;;5045733;28;20472;-90
2023/01/07 01:02:50;;;;;;;0.30;0.30;;;5.20;99.90;;;;;;5054117;28;20436;-90
2023/01/07 01:05:16;;;;;;;0.30;0.30;;;5.20;99.90;;;;;;5053235;28;20485;-90
2023/01/07 01:07:42;;;;;;;0.30;0.30;;;5.10;99.90;;;;;;5035629;28;20434;-90
2023/01/07 01:10:12;;;;;;;0.30;0.30;;;5.20;99.90;;;;;;5050439;28;21038;-91
2023/01/07 01:12:38;;;;;;;0.30;0.30;;;5.20;99.90;;;;;;5053805;28;20198;-90
2023/01/07 01:15:10;;;;;;;0.30;0.30;;;5.20;99.90;;;;;;5053802;28;20424;-90
2023/01/07 01:17:37;;;;;;;0.20;0.20;;;5.20;99.90;;;;;;5032448;28;20437;-90
2023/01/07 01:20:03;;;;;;;0.30;0.30;;;5.20;99.90;;;;;;5047713;28;21232;-90
2023/01/07 01:22:29;;;;;;;0.20;0.20;;;5.20;99.90;;;;;;5046743;28;20952;-90
2023/01/07 01:24:54;;;;;;;0.30;0.30;;;5.20;99.90;;;;;;5034527;28;20448;-89
2023/01/07 01:27:20;;;;;;;0.30;0.30;;;5.20;99.90;;;;;;5052757;28;20198;-91
2023/01/07 01:29:45;;;;;;;0.30;0.30;;;5.30;99.90;;;;;;5052695;28;20222;-90
2023/01/07 01:32:11;;;;;;;0.20;0.20;;;5.20;99.90;;;;;;5035673;28;20199;-90
2023/01/07 01:34:36;;;;;;;0.30;0.30;;;5.20;99.90;;;;;;5021785;28;20201;-90
2023/01/07 01:37:03;;;;;;;0.30;0.30;;;5.30;99.90;;;;;;5052850;28;20225;-90
2023/01/07 01:39:28;;;;;;;0.30;0.30;;;5.30;99.90;;;;;;5052547;28;20199;-91
2023/01/07 01:41:54;;;;;;;0.30;0.30;;;5.30;99.90;;;;;;5047070;28;20433;-90
2023/01/07 01:44:44;;;;;;;0.30;0.30;;;5.30;99.90;;;;;;5041238;28;20229;-90
2023/01/07 01:47:36;;;;;;;0.30;0.30;;;5.30;99.90;;;;;;5049246;28;20258;-90
2023/01/07 01:50:14;;;;;;;0.30;0.30;;;5.30;99.90;;;;;;5040195;28;20481;-90
2023/01/07 01:52:58;;;;;;;0.30;0.30;;;5.30;99.90;;;;;;5044849;28;20444;-90
2023/01/07 01:55:31;;;;;;;0.30;0.30;;;5.30;99.90;;;;;;5047273;28;20429;-90
2023/01/07 01:58:02;;;;;;;0.30;0.30;;;5.40;99.90;;;;;;5049659;28;20535;-90
2023/01/07 02:00:28;;;;;;;0.30;0.30;;;5.40;99.90;;;;;;5029677;28;20435;-91
2023/01/07 02:02:58;;;;;;;0.30;0.30;;;5.30;99.90;;;;;;5049698;28;20540;-90
2023/01/07 02:05:38;;;;;;;0.30;0.30;;;5.40;99.90;;;;;;5033463;28;20763;-90
2023/01/07 02:08:04;;;;;;;0.30;0.30;;;5.40;99.90;;;;;;5033191;28;20457;-89
2023/01/07 02:10:31;;;;;;;0.30;0.30;;;5.40;99.90;;;;;;5049800;28;20449;-90
2023/01/07 02:13:27;;;;;;;0.30;0.30;;;5.40;99.90;;;;;;5052104;28;20166;-90
2023/01/07 02:16:17;;;;;;;0.30;0.30;;;5.40;99.90;;;;;;5049390;28;20449;-90
2023/01/07 02:19:02;;;;;;;0.30;0.30;;;5.30;99.90;;;;;;5035245;28;20806;-90
2023/01/07 02:21:59;;;;;;;0.30;0.30;;;5.30;99.90;;;;;;5028995;28;20848;-90
2023/01/07 02:25:03;;;;;;;0.30;0.30;;;5.30;99.90;;;;;;5028862;28;20450;-89
2023/01/07 02:28:11;;;;;;;0.30;0.30;;;5.30;99.90;;;;;;5049331;28;20429;-90
2023/01/07 02:31:00;;;;;;;0.30;0.30;;;5.30;99.90;;;;;;5051170;28;20851;-90
2023/01/07 02:33:36;;;;;;;0.30;0.30;;;5.30;99.90;;;;;;5052066;28;20417;-90
2023/01/07 02:36:05;;;;;;;0.30;0.30;;;5.30;99.90;;;;;;5050619;28;20954;-90
2023/01/07 02:39:07;;;;;;;0.30;0.30;;;5.30;99.90;;;;;;5051295;28;20449;-90
2023/01/07 02:41:59;;;;;;;0.30;0.30;;;5.40;99.90;;;;;;5052397;28;20425;-91
2023/01/07 02:44:37;;;;;;;0.30;0.30;;;5.40;99.90;;;;;;5046716;28;20429;-91
2023/01/07 02:47:15;;;;;;;0.30;0.30;;;5.40;99.90;;;;;;5033531;28;20803;-90
2023/01/07 02:49:41;;;;;;;0.30;0.30;;;5.40;99.90;;;;;;5033634;28;20567;-89
2023/01/07 02:52:18;;;;;;;0.30;0.30;;;5.40;99.90;;;;;;5050780;28;20516;-90
2023/01/07 02:54:55;;;;;;;0.30;0.30;;;5.40;99.90;;;;;;5046695;28;20179;-90
2023/01/07 02:57:36;;;;;;;0.30;0.30;;;5.40;99.90;;;;;;5015866;28;20453;-89
2023/01/07 03:00:16;;;;;;;0.30;0.30;;;5.40;99.90;;;;;;5049861;28;20464;-89
2023/01/07 03:03:24;;;;;;;0.40;0.40;;;5.40;99.90;;;;;;5048437;28;20445;-90
2023/01/07 03:06:29;;;;;;;0.27;0.27;;;5.50;99.90;;;;;;5020274;28;20484;-90
2023/01/07 03:09:08;;;;;;;0.30;0.30;;;5.50;99.90;;;;;;5047552;28;20492;-90
2023/01/07 03:11:43;;;;;;;0.30;0.30;;;5.50;99.90;;;;;;5046367;28;20543;-89
2023/01/07 03:14:21;;;;;;;0.30;0.30;;;5.50;99.90;;;;;;5048566;28;20444;-89
2023/01/07 03:16:54;;;;;;;0.30;0.30;;;5.60;99.90;;;;;;5048262;28;20518;-90
2023/01/07 03:19:26;;;;;;;0.30;0.30;;;5.60;99.90;;;;;;5050066;28;20429;-90
2023/01/07 03:21:54;;;;;;;0.30;0.30;;;5.60;99.90;;;;;;5051183;28;21176;-89
2023/01/07 03:24:22;;;;;;;0.30;0.30;;;5.60;99.90;;;;;;5049955;28;20440;-91
2023/01/07 03:26:51;;;;;;;0.30;0.30;;;5.60;99.90;;;;;;5044495;28;20804;-90
2023/01/07 03:29:18;;;;;;;0.30;0.30;;;5.70;99.90;;;;;;5039522;28;20575;-90
2023/01/07 03:32:13;;;;;;;0.30;0.30;;;5.70;99.90;;;;;;5050545;28;20467;-90
2023/01/07 03:34:39;;;;;;;0.30;0.30;;;5.70;99.90;;;;;;5050512;28;20445;-89
2023/01/07 03:37:09;;;;;;;0.30;0.30;;;5.70;99.90;;;;;;5051244;28;20459;-90
2023/01/07 03:39:38;;;;;;;0.30;0.30;;;5.80;99.90;;;;;;5046152;28;20441;-90
2023/01/07 03:44:50;;;;;;;0.30;0.30;;;5.80;99.90;;;;;;5050864;28;20463;-90
2023/01/07 03:47:17;;;;;;;0.30;0.30;;;5.80;99.90;;;;;;5049494;28;20852;-89
2023/01/07 03:49:42;;;;;;;0.20;0.20;;;5.80;99.90;;;;;;5033473;28;20261;-89
2023/01/07 03:52:08;;;;;;;0.30;0.30;;;5.90;99.90;;;;;;5049396;28;20480;-90
2023/01/07 03:54:34;;;;;;;0.20;0.20;;;5.90;99.90;;;;;;5049529;28;20186;-89
2023/01/07 03:56:59;;;;;;;0.30;0.30;;;5.90;99.90;;;;;;5049907;28;20186;-90
2023/01/07 03:59:25;;;;;;;0.30;0.30;;;5.90;99.90;;;;;;5045259;28;20197;-89
2023/01/07 04:01:50;;;;;;;0.20;0.20;;;5.90;99.90;;;;;;5049749;28;20198;-90
2023/01/07 04:04:16;;;;;;;0.20;0.20;;;5.90;99.90;;;;;;5029264;28;20231;-90
2023/01/07 04:06:41;;;;;;;0.30;0.30;;;6.00;99.90;;;;;;5029646;28;20184;-90
2023/01/07 04:09:07;;;;;;;0.30;0.30;;;6.00;99.90;;;;;;5037797;28;20227;-90
2023/01/07 04:11:32;;;;;;;0.30;0.30;;;6.00;99.90;;;;;;5030289;28;20298;-89
2023/01/07 04:13:59;;;;;;;0.30;0.30;;;6.00;99.90;;;;;;5051881;28;20191;-90
2023/01/07 04:16:25;;;;;;;0.30;0.30;;;6.10;99.90;;;;;;5032757;28;20182;-88
2023/01/07 04:18:51;;;;;;;0.20;0.20;;;6.20;99.90;;;;;;5032099;28;20477;-91
2023/01/07 04:21:17;;;;;;;0.30;0.30;;;6.20;99.90;;;;;;5026169;28;20485;-89
2023/01/07 04:23:42;;;;;;;0.20;0.20;;;6.20;99.90;;;;;;5030759;28;20235;-89
2023/01/07 04:26:08;;;;;;;0.30;0.30;;;6.30;99.90;;;;;;5034415;28;20194;-90
2023/01/07 04:28:33;;;;;;;0.30;0.30;;;6.30;99.90;;;;;;5053544;28;20279;-89
2023/01/07 04:30:59;;;;;;;0.20;0.20;;;6.40;99.90;;;;;;5029819;28;20240;-90
2023/01/07 04:33:26;;;;;;;0.30;0.30;;;6.40;99.90;;;;;;5035306;28;20264;-89
2023/01/07 04:35:51;;;;;;;0.30;0.30;;;6.40;99.90;;;;;;5052714;28;20937;-90
2023/01/07 04:38:19;;;;;;;0.20;0.20;;;6.40;99.90;;;;;;5032360;28;20631;-90
2023/01/07 04:40:44;;;;;;;0.30;0.30;;;6.50;99.90;;;;;;5030680;28;20237;-90
2023/01/07 04:43:10;;;;;;;0.20;0.20;;;6.50;99.90;;;;;;5051137;28;20472;-90
2023/01/07 04:45:35;;;;;;;0.20;0.20;;;6.60;99.90;;;;;;5036663;28;20680;-90
2023/01/07 04:48:01;;;;;;;0.30;0.30;;;6.60;99.90;;;;;;5050526;28;20194;-89
2023/01/07 04:50:26;;;;;;;0.20;0.20;;;6.60;99.90;;;;;;5033926;28;20213;-90
2023/01/07 04:52:52;;;;;;;0.20;0.20;;;6.60;99.90;;;;;;5034732;28;20199;-90
2023/01/07 04:55:17;;;;;;;0.20;0.20;;;6.60;99.90;;;;;;5031724;28;20205;-90
2023/01/07 04:57:43;;;;;;;0.20;0.20;;;6.70;99.90;;;;;;5053617;28;20179;-90
2023/01/07 05:00:09;;;;;;;0.30;0.30;;;6.70;99.90;;;;;;5037363;28;20203;-90
2023/01/07 05:02:35;;;;;;;0.30;0.30;;;6.80;99.90;;;;;;5052057;28;20195;-91
2023/01/07 05:05:00;;;;;;;0.20;0.20;;;6.80;99.90;;;;;;5043473;28;20479;-90
2023/01/07 05:07:26;;;;;;;0.27;0.27;;;6.80;99.90;;;;;;5049545;28;20192;-90
2023/01/07 05:09:52;;;;;;;0.30;0.30;;;6.70;99.90;;;;;;5054016;28;20261;-89
2023/01/07 05:12:18;;;;;;;0.20;0.20;;;6.80;99.90;;;;;;5050878;28;21295;-88
2023/01/07 05:14:43;;;;;;;0.30;0.30;;;6.90;99.90;;;;;;5036458;28;20547;-88
2023/01/07 05:17:09;;;;;;;0.20;0.20;;;6.90;99.90;;;;;;5031693;28;20183;-88
2023/01/07 05:19:34;;;;;;;0.20;0.20;;;6.90;99.90;;;;;;5051168;28;20190;-88
2023/01/07 05:22:00;;;;;;;0.20;0.20;;;7.00;99.90;;;;;;5050641;28;20193;-90
2023/01/07 05:24:25;;;;;;;0.20;0.20;;;7.00;99.90;;;;;;5030936;28;20270;-90
2023/01/07 05:26:51;;;;;;;0.20;0.20;;;7.00;99.90;;;;;;5042963;28;20179;-90
2023/01/07 05:29:17;;;;;;;0.20;0.20;;;7.00;99.90;;;;;;5044556;28;20219;-90
2023/01/07 05:31:42;;;;;;;0.20;0.20;;;7.10;99.90;;;;;;5042814;28;20187;-89
2023/01/07 05:34:08;;;;;;;0.20;0.20;;;7.10;99.90;;;;;;5052031;28;20357;-88
2023/01/07 05:36:33;;;;;;;0.20;0.20;;;7.10;99.90;;;;;;5032790;28;20210;-90
2023/01/07 05:38:59;;;;;;;0.20;0.20;;;7.10;99.90;;;;;;5034413;28;20193;-87
2023/01/07 05:41:24;;;;;;;0.20;0.20;;;7.10;99.90;;;;;;5051994;28;20269;-89
2023/01/07 05:43:50;;;;;;;0.20;0.20;;;7.20;99.90;;;;;;5028182;28;20188;-89
2023/01/07 05:46:16;;;;;;;0.20;0.20;;;7.20;99.90;;;;;;5044424;28;20183;-89
2023/01/07 05:48:42;;;;;;;0.30;0.30;;;7.20;99.90;;;;;;5046730;28;20214;-90
2023/01/07 05:51:08;;;;;;;0.20;0.20;;;7.20;99.90;;;;;;5046261;28;20198;-90
2023/01/07 05:53:34;;;;;;;0.20;0.20;;;7.20;99.90;;;;;;5052070;28;20478;-90
2023/01/07 05:56:00;;;;;;;0.20;0.20;;;7.20;99.90;;;;;;5033096;28;20190;-88
2023/01/07 05:58:26;;;;;;;0.20;0.20;;;7.30;99.90;;;;;;5048949;28;20180;-90
2023/01/07 06:00:53;;;;;;;0.20;0.20;;;7.30;99.90;;;;;;5037877;28;20246;-90
2023/01/07 06:03:20;;;;;;;0.20;0.20;;;7.30;99.90;;;;;;5033162;28;20971;-90
2023/01/07 06:05:47;;;;;;;0.27;0.27;;;7.40;99.90;;;;;;5047229;28;20493;-91
2023/01/07 06:08:13;;;;;;;0.20;0.20;;;7.40;99.90;;;;;;5051047;28;20441;-92
2023/01/07 06:10:39;;;;;;;0.20;0.20;;;7.40;99.90;;;;;;5031748;28;20464;-92
2023/01/07 06:13:04;;;;;;;0.20;0.20;;;7.40;99.90;;;;;;5050326;28;20187;-90
2023/01/07 06:15:30;;;;;;;0.20;0.20;;;7.40;99.90;;;;;;5051765;28;20498;-90
2023/01/07 06:17:56;;;;;;;0.20;0.20;;;7.50;99.90;;;;;;5051850;28;20183;-89
2023/01/07 06:20:22;;;;;;;0.20;0.20;;;7.40;99.90;;;;;;5043604;28;20190;-89
2023/01/07 06:22:47;;;;;;;0.20;0.20;;;7.50;99.90;;;;;;5044956;28;20225;-92
2023/01/07 06:25:13;;;;;;;0.20;0.20;;;7.50;99.90;;;;;;5049260;28;20446;-92
2023/01/07 06:27:42;;;;;;;0.20;0.20;;;7.60;99.90;;;;;;5051077;28;20217;-92
2023/01/07 06:30:09;;;;;;;0.30;0.30;;;7.60;99.90;;;;;;5033016;28;20778;-91
2023/01/07 06:32:39;;;;;;;0.20;0.20;;;7.60;99.90;;;;;;5048437;28;20444;-92
2023/01/07 06:35:05;;;;;;;0.30;0.30;;;7.60;99.90;;;;;;5033151;28;20488;-92
2023/01/07 06:37:31;;;;;;;0.20;0.20;;;7.80;99.90;;;;;;5053572;28;20507;-92
2023/01/07 06:39:57;;;;;;;0.20;0.20;;;7.80;99.90;;;;;;5051808;28;20949;-90
2023/01/07 06:42:22;;;;;;;0.20;0.20;;;7.80;99.90;;;;;;5042790;28;20254;-93
2023/01/07 06:44:48;;;;;;;0.20;0.20;;;7.90;99.90;;;;;;5035788;28;20183;-91
2023/01/07 06:47:13;;;;;;;0.20;0.20;;;7.90;99.90;;;;;;5025314;28;20187;-90
2023/01/07 06:49:39;;;;;;;0.20;0.20;;;7.90;99.90;;;;;;5031333;28;20248;-90
2023/01/07 06:52:04;;;;;;;0.20;0.20;;;7.90;99.90;;;;;;5048396;28;20282;-87
2023/01/07 06:54:30;;;;;;;0.20;0.20;;;7.90;99.90;;;;;;5045721;28;20240;-90
2023/01/07 06:56:55;;;;;;;0.20;0.20;;;8.00;99.90;;;;;;5030215;28;20291;-87
2023/01/07 06:59:21;;;;;;;0.20;0.20;;;7.90;99.90;;;;;;5050613;28;20202;-87
2023/01/07 07:01:46;;;;;;;0.20;0.20;;;7.90;99.90;;;;;;5039975;28;20233;-87
2023/01/07 07:04:12;;;;;;;0.20;0.20;;;8.00;99.90;;;;;;5044222;28;21026;-87
2023/01/07 07:06:37;;;;;;;0.20;0.20;;;8.00;99.90;;;;;;5044490;28;20785;-89
2023/01/07 07:09:03;;;;;;;0.20;0.20;;;8.10;99.90;;;;;;5046777;28;20256;-87
2023/01/07 07:11:29;;;;;;;0.20;0.20;;;8.10;99.90;;;;;;5031196;28;20191;-88
2023/01/07 07:13:54;;;;;;;0.20;0.20;;;8.00;99.90;;;;;;5030114;28;20251;-87
2023/01/07 07:16:21;;;;;;;0.20;0.20;;;8.10;99.90;;;;;;5045416;28;20187;-89
2023/01/07 07:18:47;;;;;;;0.30;0.30;;;8.20;99.90;;;;;;5041894;28;20660;-91
2023/01/07 07:21:13;;;;;;;0.20;0.20;;;8.20;99.90;;;;;;5048062;28;20540;-89
2023/01/07 07:23:40;;;;;;;0.20;0.20;;;8.20;99.90;;;;;;5049589;28;20262;-90
2023/01/07 07:26:05;;;;;;;0.20;0.20;;;8.20;99.90;;;;;;5046788;28;20437;-90
2023/01/07 07:28:31;;;;;;;0.20;0.20;;;8.20;99.90;;;;;;5034179;28;20552;-90
2023/01/07 07:30:56;;;;;;;0.20;0.20;;;8.20;99.90;;;;;;5048198;28;20193;-88
2023/01/07 07:33:22;;;;;;;0.20;0.20;;;8.20;99.90;;;;;;5045992;28;20280;-89
2023/01/07 07:35:47;;;;;;;0.20;0.20;;;8.30;99.90;;;;;;5044626;28;20226;-89
2023/01/07 07:38:13;;;;;;;0.20;0.20;;;8.40;99.90;;;;;;5047095;28;20276;-88
2023/01/07 07:40:38;;;;;;;0.20;0.20;;;8.30;99.90;;;;;;5030446;28;20593;-87
2023/01/07 07:43:04;;;;;;;0.20;0.20;;;8.30;99.90;;;;;;5043044;28;20187;-88
2023/01/07 07:45:29;;;;;;;0.20;0.20;;;8.40;99.90;;;;;;5040414;28;20193;-85
2023/01/07 07:47:55;;;;;;;0.30;0.30;;;8.40;99.90;;;;;;5045443;28;20262;-87
2023/01/07 07:50:20;;;;;;;0.20;0.20;;;8.50;99.90;;;;;;5038024;28;20226;-88
2023/01/07 07:52:46;;;;;;;0.20;0.20;;;8.60;99.90;;;;;;5046545;28;20191;-85
2023/01/07 07:55:11;;;;;;;0.20;0.20;;;8.60;99.90;;;;;;5047513;28;20708;-85
2023/01/07 07:57:37;;;;;;;0.20;0.20;;;8.50;99.90;;;;;;5042361;28;20186;-87
2023/01/07 08:00:04;;;;;;;0.20;0.20;;;8.60;99.90;;;;;;5042371;28;20277;-89
2023/01/07 08:02:29;;;;;;;0.20;0.20;;;8.50;99.90;;;;;;5044323;28;20650;-88
2023/01/07 08:04:55;;;;;;;0.30;0.30;;;8.60;99.90;;;;;;5049315;28;20507;-88
2023/01/07 08:07:20;;;;;;;0.20;0.20;;;8.60;99.90;;;;;;5039742;28;20400;-88
2023/01/07 08:09:46;;;;;;;0.30;0.30;;;8.60;99.90;;;;;;5042390;28;20313;-88
2023/01/07 08:12:11;;;;;;;0.20;0.20;;;8.60;99.90;;;;;;5046131;28;20191;-88
2023/01/07 08:14:36;;;;;;;0.20;0.20;;;8.60;99.90;;;;;;5044114;28;20217;-87
2023/01/07 08:17:02;;;;;;;0.30;0.30;;;8.60;99.90;;;;;;5047398;28;21581;-87
2023/01/07 08:19:28;;;;;;;0.20;0.20;;;8.60;99.90;;;;;;5043413;28;20237;-88
2023/01/07 08:21:53;;;;;;;0.20;0.20;;;8.70;99.90;;;;;;5048283;28;20191;-89
2023/01/07 08:24:19;;;;;;;0.20;0.20;;;8.70;99.90;;;;;;5049651;28;20195;-91
2023/01/07 08:26:44;;;;;;;0.20;0.20;;;8.70;99.90;;;;;;5049562;28;20210;-92
2023/01/07 08:29:10;;;;;;;0.17;0.17;;;8.60;99.90;;;;;;5048750;28;20222;-89
2023/01/07 08:31:35;;;;;;;0.20;0.20;;;8.70;99.90;;;;;;5043628;28;20710;-90
2023/01/07 08:34:00;;;;;;;0.20;0.20;;;8.70;99.90;;;;;;5047575;28;20194;-88
2023/01/07 08:36:26;;;;;;;0.20;0.20;;;8.70;99.90;;;;;;5029613;28;20199;-89
2023/01/07 08:38:52;;;;;;;0.20;0.20;;;8.70;99.90;;;;;;5044294;28;20559;-85
2023/01/07 08:41:20;;;;;;;0.20;0.20;;;8.70;99.90;;;;;;5025452;28;20244;-90
2023/01/07 08:43:45;;;;;;;0.20;0.20;;;8.80;99.90;;;;;;5048289;28;20540;-90
2023/01/07 08:46:11;;;;;;;0.20;0.20;;;8.70;99.90;;;;;;5050335;28;20524;-90
2023/01/07 08:48:38;;;;;;;0.20;0.20;;;8.80;99.90;;;;;;5048512;28;20237;-89
2023/01/07 08:51:04;;;;;;;0.20;0.20;;;8.80;99.90;;;;;;5040617;28;20267;-90
2023/01/07 08:53:30;;;;;;;0.20;0.20;;;8.80;99.90;;;;;;5032564;28;20437;-90
2023/01/07 08:55:56;;;;;;;0.20;0.20;;;8.80;99.90;;;;;;5022868;28;20530;-89
2023/01/07 08:58:21;;;;;;;0.20;0.20;;;8.80;99.90;;;;;;5028960;28;20299;-90
2023/01/07 09:00:47;;;;;;;0.20;0.20;;;8.90;99.90;;;;;;5042236;28;20198;-93
2023/01/07 09:03:12;;;;;;;0.20;0.20;;;8.90;99.90;;;;;;5044822;28;20241;-86
2023/01/07 09:05:38;;;;;;;0.20;0.20;;;8.90;99.90;;;;;;5041028;28;20372;-83
2023/01/07 09:08:03;;;;;;;0.20;0.20;;;9.00;99.90;;;;;;5035111;28;20282;-85
2023/01/07 09:10:29;;;;;;;0.20;0.20;;;8.90;99.90;;;;;;5044047;28;20234;-88
2023/01/07 09:12:55;;;;;;;0.20;0.20;;;8.90;99.90;;;;;;5026077;28;20621;-87
2023/01/07 09:15:20;;;;;;;0.20;0.20;;;9.00;99.90;;;;;;5022980;28;20222;-87
2023/01/07 09:17:46;;;;;;;0.20;0.20;;;9.00;99.90;;;;;;5049546;28;20194;-90
2023/01/07 09:20:11;;;;;;;0.20;0.20;;;9.10;99.90;;;;;;5048886;28;20209;-87
2023/01/07 09:22:37;;;;;;;0.20;0.20;;;9.10;99.90;;;;;;5045751;28;20241;-85
2023/01/07 09:25:04;;;;;;;0.20;0.20;;;9.10;99.90;;;;;;5046490;28;20199;-87
2023/01/07 09:27:30;;;;;;;0.20;0.20;;;9.10;99.90;;;;;;5050956;28;20210;-87
2023/01/07 09:29:57;;;;;;;0.20;0.20;;;9.00;99.90;;;;;;5040716;28;20527;-87
2023/01/07 09:32:27;;;;;;;0.20;0.20;;;9.00;99.90;;;;;;5045275;28;20183;-88
2023/01/07 09:34:52;;;;;;;0.20;0.20;;;9.00;99.90;;;;;;5039283;28;20818;-88
2023/01/07 09:37:18;;;;;;;0.20;0.20;;;9.00;99.90;;;;;;5021917;28;20445;-88
2023/01/07 09:39:44;;;;;;;0.20;0.20;;;9.00;99.90;;;;;;5051302;28;20193;-88
2023/01/07 09:42:36;;;;;;;0.20;0.20;;;9.00;99.90;;;;;;5034603;28;20178;-88
2023/01/07 09:45:30;;;;;;;0.20;0.20;;;9.00;99.90;;;;;;5050914;28;20206;-87
2023/01/07 09:47:58;;;;;;;0.20;0.20;;;9.00;99.90;;;;;;5000860;28;20474;-90
2023/01/07 09:50:38;;;;;;;0.20;0.20;;;9.00;99.90;;;;;;5051617;28;20892;-91
2023/01/07 09:53:11;;;;;;;0.20;0.20;;;9.00;99.90;;;;;;5053286;28;20452;-91
2023/01/07 09:55:40;;;;;;;0.20;0.20;;;9.10;99.90;;;;;;5045698;28;20437;-90
2023/01/07 09:58:13;;;;;;;0.20;0.20;;;9.10;99.90;;;;;;5035259;28;20437;-90
2023/01/07 10:00:51;;;;;;;0.20;0.20;;;9.10;99.90;;;;;;5046781;28;20441;-90
2023/01/07 10:03:24;;;;;;;0.20;0.20;;;9.10;99.90;;;;;;5048435;28;20439;-89
2023/01/07 10:06:17;;;;;;;0.20;0.20;;;9.10;99.90;;;;;;5041666;28;20515;-90
2023/01/07 10:08:55;;;;;;;0.20;0.20;;;9.10;99.90;;;;;;5040786;28;21056;-89
2023/01/07 10:11:26;;;;;;;0.20;0.20;;;9.10;99.90;;;;;;5053098;28;20448;-88
2023/01/07 10:14:14;;;;;;;0.20;0.20;;;9.10;99.90;;;;;;5052125;28;20928;-90
2023/01/07 10:17:08;;;;;;;0.20;0.20;;;9.10;99.90;;;;;;5032219;28;20979;-89
2023/01/07 10:19:52;;;;;;;0.20;0.20;;;9.20;99.90;;;;;;5052888;28;20539;-90
2023/01/07 10:22:52;;;;;;;0.20;0.20;;;9.10;99.90;;;;;;5051424;28;20452;-89
2023/01/07 10:25:25;;;;;;;0.20;0.20;;;9.10;99.90;;;;;;5020146;28;20449;-88
2023/01/07 10:27:55;;;;;;;0.20;0.20;;;9.10;99.90;;;;;;5050509;28;20814;-89
2023/01/07 10:30:28;;;;;;;0.20;0.20;;;9.20;99.90;;;;;;5045686;28;20481;-90
2023/01/07 10:33:18;;;;;;;0.20;0.20;;;9.20;99.90;;;;;;5036920;28;20485;-89
2023/01/07 10:35:47;;;;;;;0.20;0.20;;;9.20;99.90;;;;;;5022518;28;20479;-89
2023/01/07 10:38:19;;;;;;;0.20;0.20;;;9.20;99.90;;;;;;5029993;28;20540;-89
2023/01/07 10:40:54;;;;;;;0.20;0.20;;;9.30;99.90;;;;;;5050714;28;20464;-90
2023/01/07 10:44:16;;;;;;;0.20;0.20;;;9.20;99.90;;;;;;5034505;28;20448;-89
2023/01/07 10:47:02;;;;;;;0.20;0.20;;;9.30;99.90;;;;;;4985932;28;20531;-87
2023/01/07 10:49:56;;;;;;;0.20;0.20;;;9.30;99.90;;;;;;4946084;28;21399;-90
2023/01/07 10:52:25;;;;;;;0.20;0.20;;;9.30;99.90;;;;;;5040149;28;20472;-90
2023/01/07 10:55:00;;;;;;;0.20;0.20;;;9.30;99.90;;;;;;5046733;28;20437;-88
2023/01/07 10:57:28;;;;;;;0.20;0.20;;;9.30;99.90;;;;;;5032672;28;20532;-90
2023/01/07 11:00:01;;;;;;;0.20;0.20;;;9.40;99.90;;;;;;5051247;28;20445;-90
2023/01/07 11:02:27;;;;;;;0.20;0.20;;;9.40;99.90;;;;;;5047996;28;20440;-90
2023/01/07 11:04:57;;;;;;;0.20;0.20;;;9.40;99.90;;;;;;5033710;28;20472;-90
2023/01/07 11:07:42;;;;;;;0.20;0.20;;;9.30;99.90;;;;;;5031867;28;20529;-91
2023/01/07 11:10:13;;;;;;;0.20;0.20;;;9.40;99.90;;;;;;5042479;28;20565;-89
2023/01/07 11:12:45;;;;;;;0.20;0.20;;;9.40;99.90;;;;;;5040160;28;20430;-89
2023/01/07 11:15:24;;;;;;;0.20;0.20;;;9.40;99.90;;;;;;5049699;28;20917;-87
2023/01/07 11:17:58;;;;;;;0.20;0.20;;;9.40;99.90;;;;;;5050456;28;20536;-90
2023/01/07 11:20:53;;;;;;;0.20;0.20;;;9.40;99.90;;;;;;5025957;28;20478;-90
2023/01/07 11:23:38;;;;;;;0.20;0.20;;;9.40;99.90;;;;;;5039700;28;20450;-84
2023/01/07 11:26:33;;;;;;;0.20;0.20;;;9.40;99.90;;;;;;5041550;28;20810;-84
2023/01/07 11:29:22;;;;;;;0.20;0.20;;;9.40;99.90;;;;;;5041237;28;20530;-85
2023/01/07 11:31:52;;;;;;;0.20;0.20;;;9.40;99.90;;;;;;5043011;28;20441;-85
2023/01/07 11:34:36;;;;;;;0.20;0.20;;;9.40;99.90;;;;;;5027659;28;20457;-86
2023/01/07 11:37:03;;;;;;;0.20;0.20;;;9.40;99.90;;;;;;5044479;28;20437;-85
2023/01/07 11:39:34;;;;;;;0.20;0.20;;;9.40;99.90;;;;;;5047877;28;20480;-85
2023/01/07 11:45:17;;;;;;;0.20;0.20;;;9.40;99.90;;;;;;5048638;28;20444;-84
2023/01/07 11:48:24;;;;;;;0.20;0.20;;;9.50;99.90;;;;;;5031217;28;20516;-85
2023/01/07 11:50:53;;;;;;;0.20;0.20;;;9.50;99.90;;;;;;5047109;28;20437;-85
2023/01/07 11:53:18;;;;;;;0.20;0.20;;;9.50;99.90;;;;;;5044894;28;20445;-85
2023/01/07 11:56:00;;;;;;;0.20;0.20;;;9.60;99.90;;;;;;5048500;28;20502;-84
2023/01/07 11:58:29;;;;;;;0.20;0.20;;;9.60;99.90;;;;;;5037314;28;20267;-84
2023/01/07 12:01:06;;;;;;;0.20;0.20;;;9.60;99.90;;;;;;5031872;28;20477;-84
2023/01/07 12:03:33;;;;;;;0.20;0.20;;;9.60;99.90;;;;;;5036468;28;21021;-85
2023/01/07 12:06:06;;;;;;;0.20;0.20;;;9.60;99.90;;;;;;5040772;28;20485;-85
2023/01/07 12:08:31;;;;;;;0.20;0.20;;;9.60;99.90;;;;;;5026475;28;20514;-85
2023/01/07 12:11:02;;;;;;;0.20;0.20;;;9.60;99.90;;;;;;5044647;28;20575;-87
2023/01/07 12:13:27;;;;;;;0.20;0.20;;;9.60;99.90;;;;;;5025569;28;20193;-87
2023/01/07 12:16:03;;;;;;;0.20;0.20;;;9.60;99.90;;;;;;5044208;28;20528;-84
2023/01/07 12:18:59;;;;;;;0.20;0.20;;;9.70;99.90;;;;;;5027113;28;20190;-86
2023/01/07 12:21:54;;;;;;;0.20;0.20;;;9.70;99.90;;;;;;5048416;28;20545;-88
2023/01/07 12:24:37;;;;;;;0.20;0.20;;;9.70;99.90;;;;;;5001418;28;20489;-88
2023/01/07 12:27:14;;;;;;;0.20;0.20;;;9.70;99.90;;;;;;5039329;28;20453;-87
2023/01/07 12:29:45;;;;;;;0.20;0.20;;;9.70;99.90;;;;;;5045890;28;20476;-88
2023/01/07 12:32:25;;;;;;;0.20;0.20;;;9.70;99.90;;;;;;5035536;28;20443;-87
2023/01/07 12:35:17;;;;;;;0.20;0.20;;;9.70;99.90;;;;;;5048192;28;20979;-88
2023/01/07 12:38:02;;;;;;;0.20;0.20;;;9.80;99.90;;;;;;5053385;28;20441;-88
2023/01/07 12:40:30;;;;;;;0.20;0.20;;;9.80;99.90;;;;;;5036568;28;20560;-88
2023/01/07 12:43:03;;;;;;;0.20;0.20;;;9.80;99.90;;;;;;5042960;28;20444;-88
2023/01/07 12:45:39;;;;;;;0.20;0.20;;;9.80;99.90;;;;;;5050773;28;20491;-88
2023/01/07 12:48:15;;;;;;;0.20;0.20;;;9.80;99.90;;;;;;5052257;28;20472;-88
2023/01/07 12:50:45;;;;;;;0.20;0.20;;;9.80;99.90;;;;;;5052030;28;20480;-88
2023/01/07 12:53:35;;;;;;;0.20;0.20;;;9.80;99.90;;;;;;5035939;28;20452;-87
2023/01/07 12:56:19;;;;;;;0.20;0.20;;;9.80;99.90;;;;;;5049737;28;20792;-87
2023/01/07 12:58:54;;;;;;;0.20;0.20;;;9.80;99.90;;;;;;5048827;28;20505;-86
2023/01/07 13:01:29;;;;;;;0.20;0.20;;;9.80;99.90;;;;;;5043592;28;20448;-87
2023/01/07 13:04:10;;;;;;;0.20;0.20;;;9.80;99.90;;;;;;5027802;28;20473;-87
2023/01/07 13:06:49;;;;;;;0.20;0.20;;;9.80;99.90;;;;;;5034696;28;20452;-86
2023/01/07 13:09:29;;;;;;;0.20;0.20;;;9.80;99.90;;;;;;5036680;28;20486;-85
2023/01/07 13:15:19;;;;;;;0.20;0.20;;;10.00;99.90;;;;;;4998052;28;21040;-86
2023/01/07 13:17:46;;;;;;;0.20;0.20;;;10.10;99.90;;;;;;5000925;28;20455;-89
2023/01/07 13:20:13;;;;;;;0.20;0.20;;;10.70;99.90;;;;;;5023037;28;20472;-83
2023/01/07 13:22:46;;;;;;;0.20;0.20;;;11.30;99.90;;;;;;5047519;28;20467;-84
2023/01/07 13:25:43;;;;;;;0.20;0.20;;;11.30;99.90;;;;;;5039895;28;20501;-86
2023/01/07 13:28:36;;;;;;;0.20;0.20;;;10.90;99.90;;;;;;5029855;28;20452;-88